Akron Canton Regional Airport
KCAK : now visible

Airfield :











YOU CAN JOIN US ON...

 
LOGIN :

Register | Disclaimer

   EN    FR    IT 

 









Legend :    VFR   Marginal VFR   IFR   Intensive IFR   Very Intensive IFR
Visi :
Ceiling :
>= 8 km
>= 3000ft
5 to 8 km
1000 to 3000 ft
1500m to 5 km
500 to 1000 ft
800 to 1500m
200 to 500 ft
< 800m
< 200 ft
Symbols :   Thunderstorms  Fog  Heavy snow  Heavy precipitations  Wind > 20 kt






- Airport Elevation : 1228 ft
- IATA code : CAK


KCAK - Akron Canton Regional

CURRENT METAR :
  • 280051Z 00000KT 10SM FEW024 OVC095 17/14 A2976 RMK AO2 SLP073 T01720144

EXPIRED METARs :
  • 272351Z 00000KT 10SM OVC085 17/15 A2975 RMK AO2 RAE45 SLP071 P0003 60006 T01720150 10233 20172 50001
  • 272251Z 21006KT 7SM -RA OVC085 18/15 A2975 RMK AO2 RAB06 SLP071 P0002 T01780150

TAF KCAK
Valid from the 28 at 00:00 until the 29 at 00:00 UTC


272329Z 2800/2824 21006KT P6SM VCSH BKN035
TEMPO 2804/2808 4SM -SHRA BKN025
FM280800 31005KT 4SM BR BKN008
TEMPO 2808/2811 BKN003
FM281300 33008KT P6SM BKN025
FM281600 32005KT P6SM BKN035
FM282000 27005KT P6SM SCT250
KZOB FIR / North America



MET'MAP, your aeronautical weather chart ! - Copyright ORBIFLY December 2007 - Disclaimer

ORBIFLY MET'MAP TEAM :

Programming & Development : Alexandra Zaïnal
Original concept : Baudouin d'Aumeries
Technical & hardware support : Manuel Goepfert
Assistance : Marc-Olivier Méhu

Contact : metmap@orbifly.com




SOURCES & CREDITS :

   NOAA       Earth
Advisory